Las Vegas, NM

9:57 AM MDT on August 31, 2016 (GMT -0600)
North 8th. Street Extension | | Change Station

Elev 6526 ft 35.61 °N, 105.23 °W | Updated 2 seconds ago

Clear
Clear
66.4 °F
Feels Like 66.4 °F
N
0.0
Wind Variable Wind from North
Gusts 5.6 mph

Today
High -- | Low -- °F
--% Chance of Precip.
Yesterday
High -- | Low -- °F
Precip. -- in
Pressure 30.16 in
Visibility 10.0 miles
Clouds Clear
Dew Point 51 °F
Humidity 58%
Rainfall 0.00 in
Snow Depth Not available.
6:32 AM 7:28 PM
Waning Crescent, 1% visible
METAR KLVS 311553Z AUTO 00000KT 10SM CLR 17/12 A3041 RMK AO2 SLP213 T01670117
Pressure 30.16 in
Visibility 10.0 miles
Clouds Clear
Dew Point 51 °F
Humidity 58%
Rainfall 0.00 in
Snow Depth Not available.
6:32 AM 7:28 PM
Waning Crescent, 1% visible
METAR KLVS 311553Z AUTO 00000KT 10SM CLR 17/12 A3041 RMK AO2 SLP213 T01670117

10-Day Weather Forecast

Almanac

Astronomy

Aug. 31, 2016 Rise Set
Actual Time
Civil Twilight
Nautical Twilight
Astronomical Twilight
Moon
Length of Visible Light
Length of Day
Tomorrow will be .
, % of the Moon is Illuminated

Today's Extremes

State Highs State Lows

Community

WunderPhotos

Upload Photos

1,936,098 photos uploaded!

WunderBlog® & News

Nearby

Air Quality

  Air Quality AQ Index Pollutant
Not available.

Snow Depth

Station Depth Elevation

Earthquake Activity

City Distance Mag. Time & Date
Minimum magnitude displayed is 2.5.

Coastal Water Temperatures

Place Temperature

Stations

Nearby Weather Stations

Station Location Temp. Windchill Dew Point Humidity Wind Precip. Elev Updated Type
                   

Watches & Warnings

There are currently no watches in effect.